sensor_id;sensor_type;location;lat;lon;timestamp;P1;durP1;ratioP1;P2;durP2;ratioP2
11443;SDS011;5778;47.856;12.154;2022-08-21T00:00:32;3.30;;;3.10;;
11443;SDS011;5778;47.856;12.154;2022-08-21T00:03:00;3.30;;;3.10;;
11443;SDS011;5778;47.856;12.154;2022-08-21T00:05:29;4.00;;;3.50;;
11443;SDS011;5778;47.856;12.154;2022-08-21T00:07:58;3.30;;;3.10;;
11443;SDS011;5778;47.856;12.154;2022-08-21T00:10:26;3.07;;;2.77;;
11443;SDS011;5778;47.856;12.154;2022-08-21T00:12:54;3.40;;;3.10;;
11443;SDS011;5778;47.856;12.154;2022-08-21T00:15:37;3.70;;;3.37;;
11443;SDS011;5778;47.856;12.154;2022-08-21T00:18:06;3.80;;;3.50;;
11443;SDS011;5778;47.856;12.154;2022-08-21T00:20:35;3.87;;;3.57;;
11443;SDS011;5778;47.856;12.154;2022-08-21T00:23:03;3.70;;;3.40;;
11443;SDS011;5778;47.856;12.154;2022-08-21T00:25:31;3.63;;;3.43;;
11443;SDS011;5778;47.856;12.154;2022-08-21T00:28:00;3.73;;;3.43;;
11443;SDS011;5778;47.856;12.154;2022-08-21T00:30:27;4.00;;;3.60;;
11443;SDS011;5778;47.856;12.154;2022-08-21T00:32:55;3.50;;;3.20;;
11443;SDS011;5778;47.856;12.154;2022-08-21T00:35:31;4.93;;;3.77;;
11443;SDS011;5778;47.856;12.154;2022-08-21T00:38:00;4.80;;;3.73;;
11443;SDS011;5778;47.856;12.154;2022-08-21T00:40:29;3.97;;;3.50;;
11443;SDS011;5778;47.856;12.154;2022-08-21T00:43:05;4.73;;;3.60;;
11443;SDS011;5778;47.856;12.154;2022-08-21T00:51:53;4.77;;;3.90;;
11443;SDS011;5778;47.856;12.154;2022-08-21T00:54:25;4.63;;;3.60;;
11443;SDS011;5778;47.856;12.154;2022-08-21T00:57:03;3.93;;;3.53;;
11443;SDS011;5778;47.856;12.154;2022-08-21T00:59:35;3.83;;;3.43;;
11443;SDS011;5778;47.856;12.154;2022-08-21T01:02:05;3.93;;;3.63;;
11443;SDS011;5778;47.856;12.154;2022-08-21T01:04:34;3.90;;;3.60;;
11443;SDS011;5778;47.856;12.154;2022-08-21T01:07:04;3.30;;;3.10;;
11443;SDS011;5778;47.856;12.154;2022-08-21T01:09:32;3.70;;;3.40;;
11443;SDS011;5778;47.856;12.154;2022-08-21T01:11:59;4.13;;;3.70;;
11443;SDS011;5778;47.856;12.154;2022-08-21T01:14:27;4.23;;;3.50;;
11443;SDS011;5778;47.856;12.154;2022-08-21T01:20:37;3.83;;;3.50;;
11443;SDS011;5778;47.856;12.154;2022-08-21T01:23:09;3.60;;;3.40;;
11443;SDS011;5778;47.856;12.154;2022-08-21T01:28:31;4.10;;;3.73;;
11443;SDS011;5778;47.856;12.154;2022-08-21T01:31:01;3.70;;;3.40;;
11443;SDS011;5778;47.856;12.154;2022-08-21T01:33:32;3.80;;;3.43;;
11443;SDS011;5778;47.856;12.154;2022-08-21T01:36:13;4.00;;;3.70;;
11443;SDS011;5778;47.856;12.154;2022-08-21T01:38:42;3.50;;;3.20;;
11443;SDS011;5778;47.856;12.154;2022-08-21T01:41:09;3.50;;;3.20;;
11443;SDS011;5778;47.856;12.154;2022-08-21T01:43:36;4.00;;;3.70;;
11443;SDS011;5778;47.856;12.154;2022-08-21T01:46:15;3.20;;;3.00;;
11443;SDS011;5778;47.856;12.154;2022-08-21T01:48:42;3.70;;;3.30;;
11443;SDS011;5778;47.856;12.154;2022-08-21T01:51:10;3.33;;;3.13;;
11443;SDS011;5778;47.856;12.154;2022-08-21T01:53:37;3.43;;;3.10;;
11443;SDS011;5778;47.856;12.154;2022-08-21T01:59:18;3.30;;;3.10;;
11443;SDS011;5778;47.856;12.154;2022-08-21T02:01:46;3.80;;;3.50;;
11443;SDS011;5778;47.856;12.154;2022-08-21T02:04:14;3.43;;;3.23;;
11443;SDS011;5778;47.856;12.154;2022-08-21T02:09:36;3.33;;;3.13;;
11443;SDS011;5778;47.856;12.154;2022-08-21T02:12:03;4.00;;;3.70;;
11443;SDS011;5778;47.856;12.154;2022-08-21T02:14:32;3.20;;;3.00;;
11443;SDS011;5778;47.856;12.154;2022-08-21T02:17:05;3.37;;;3.00;;
11443;SDS011;5778;47.856;12.154;2022-08-21T02:19:35;3.80;;;3.50;;
11443;SDS011;5778;47.856;12.154;2022-08-21T02:22:02;3.67;;;3.37;;
11443;SDS011;5778;47.856;12.154;2022-08-21T02:24:30;3.60;;;3.30;;
11443;SDS011;5778;47.856;12.154;2022-08-21T02:26:57;5.03;;;3.50;;
11443;SDS011;5778;47.856;12.154;2022-08-21T02:29:24;3.47;;;3.17;;
11443;SDS011;5778;47.856;12.154;2022-08-21T02:31:53;3.30;;;3.00;;
11443;SDS011;5778;47.856;12.154;2022-08-21T02:34:21;3.50;;;3.20;;
11443;SDS011;5778;47.856;12.154;2022-08-21T02:36:55;4.33;;;3.60;;
11443;SDS011;5778;47.856;12.154;2022-08-21T02:39:22;3.70;;;3.50;;
11443;SDS011;5778;47.856;12.154;2022-08-21T02:41:49;3.50;;;3.20;;
11443;SDS011;5778;47.856;12.154;2022-08-21T02:44:16;3.73;;;3.40;;
11443;SDS011;5778;47.856;12.154;2022-08-21T02:46:47;3.50;;;3.20;;
11443;SDS011;5778;47.856;12.154;2022-08-21T02:49:34;3.57;;;3.37;;
11443;SDS011;5778;47.856;12.154;2022-08-21T02:52:01;3.60;;;3.30;;
11443;SDS011;5778;47.856;12.154;2022-08-21T02:54:30;2.93;;;2.73;;
11443;SDS011;5778;47.856;12.154;2022-08-21T03:00:20;3.50;;;3.20;;
11443;SDS011;5778;47.856;12.154;2022-08-21T03:02:50;3.20;;;3.00;;
11443;SDS011;5778;47.856;12.154;2022-08-21T03:05:24;2.80;;;2.60;;
11443;SDS011;5778;47.856;12.154;2022-08-21T03:07:53;4.13;;;2.47;;
11443;SDS011;5778;47.856;12.154;2022-08-21T03:10:21;2.90;;;2.70;;
11443;SDS011;5778;47.856;12.154;2022-08-21T03:12:50;2.37;;;2.27;;
11443;SDS011;5778;47.856;12.154;2022-08-21T03:15:33;2.10;;;2.00;;
11443;SDS011;5778;47.856;12.154;2022-08-21T03:18:01;2.30;;;2.10;;
11443;SDS011;5778;47.856;12.154;2022-08-21T03:20:31;2.60;;;2.03;;
11443;SDS011;5778;47.856;12.154;2022-08-21T03:22:59;2.93;;;2.07;;
11443;SDS011;5778;47.856;12.154;2022-08-21T03:28:32;1.70;;;1.60;;
11443;SDS011;5778;47.856;12.154;2022-08-21T03:30:59;1.80;;;1.70;;
11443;SDS011;5778;47.856;12.154;2022-08-21T03:33:26;1.80;;;1.70;;
11443;SDS011;5778;47.856;12.154;2022-08-21T03:36:05;2.40;;;2.20;;
11443;SDS011;5778;47.856;12.154;2022-08-21T03:38:34;2.70;;;2.03;;
11443;SDS011;5778;47.856;12.154;2022-08-21T03:41:03;2.23;;;2.00;;
11443;SDS011;5778;47.856;12.154;2022-08-21T03:43:31;2.37;;;2.27;;
11443;SDS011;5778;47.856;12.154;2022-08-21T03:49:11;2.60;;;2.40;;
11443;SDS011;5778;47.856;12.154;2022-08-21T03:51:40;2.67;;;2.47;;
11443;SDS011;5778;47.856;12.154;2022-08-21T03:54:08;3.00;;;2.80;;
11443;SDS011;5778;47.856;12.154;2022-08-21T03:59:57;3.33;;;3.03;;
11443;SDS011;5778;47.856;12.154;2022-08-21T04:02:24;3.43;;;3.23;;
11443;SDS011;5778;47.856;12.154;2022-08-21T04:04:51;3.13;;;2.93;;
11443;SDS011;5778;47.856;12.154;2022-08-21T04:07:24;3.60;;;3.30;;
11443;SDS011;5778;47.856;12.154;2022-08-21T04:09:51;3.70;;;3.40;;
11443;SDS011;5778;47.856;12.154;2022-08-21T04:12:18;4.27;;;3.97;;
11443;SDS011;5778;47.856;12.154;2022-08-21T04:14:46;4.17;;;3.87;;
11443;SDS011;5778;47.856;12.154;2022-08-21T04:20:35;3.97;;;3.67;;
11443;SDS011;5778;47.856;12.154;2022-08-21T04:23:04;4.87;;;4.47;;
11443;SDS011;5778;47.856;12.154;2022-08-21T04:28:49;4.83;;;4.40;;
11443;SDS011;5778;47.856;12.154;2022-08-21T04:31:16;4.80;;;4.40;;
11443;SDS011;5778;47.856;12.154;2022-08-21T04:33:43;4.63;;;4.23;;
11443;SDS011;5778;47.856;12.154;2022-08-21T04:39:34;4.47;;;4.17;;
11443;SDS011;5778;47.856;12.154;2022-08-21T04:42:01;4.40;;;4.10;;
11443;SDS011;5778;47.856;12.154;2022-08-21T04:44:28;4.47;;;4.07;;
11443;SDS011;5778;47.856;12.154;2022-08-21T04:47:00;5.10;;;4.47;;
11443;SDS011;5778;47.856;12.154;2022-08-21T04:52:21;5.30;;;4.50;;
11443;SDS011;5778;47.856;12.154;2022-08-21T04:54:52;4.77;;;4.47;;
11443;SDS011;5778;47.856;12.154;2022-08-21T05:00:19;4.87;;;4.47;;
11443;SDS011;5778;47.856;12.154;2022-08-21T05:02:47;5.00;;;4.60;;
11443;SDS011;5778;47.856;12.154;2022-08-21T05:05:27;4.80;;;4.50;;
11443;SDS011;5778;47.856;12.154;2022-08-21T05:07:55;5.07;;;4.57;;
11443;SDS011;5778;47.856;12.154;2022-08-21T05:10:25;5.57;;;4.40;;
11443;SDS011;5778;47.856;12.154;2022-08-21T05:12:53;4.33;;;4.03;;
11443;SDS011;5778;47.856;12.154;2022-08-21T05:22:06;3.93;;;3.73;;
11443;SDS011;5778;47.856;12.154;2022-08-21T05:24:34;4.83;;;4.40;;
11443;SDS011;5778;47.856;12.154;2022-08-21T05:30:26;4.13;;;3.83;;
11443;SDS011;5778;47.856;12.154;2022-08-21T05:32:55;4.67;;;4.27;;
11443;SDS011;5778;47.856;12.154;2022-08-21T05:35:23;3.90;;;3.60;;
11443;SDS011;5778;47.856;12.154;2022-08-21T05:37:50;5.80;;;3.50;;
11443;SDS011;5778;47.856;12.154;2022-08-21T05:40:17;4.00;;;3.70;;
11443;SDS011;5778;47.856;12.154;2022-08-21T05:42:45;4.07;;;3.70;;
11443;SDS011;5778;47.856;12.154;2022-08-21T05:45:12;3.63;;;3.33;;
11443;SDS011;5778;47.856;12.154;2022-08-21T05:47:41;3.90;;;3.60;;
11443;SDS011;5778;47.856;12.154;2022-08-21T05:50:17;3.60;;;3.30;;
11443;SDS011;5778;47.856;12.154;2022-08-21T05:52:44;3.50;;;3.20;;
11443;SDS011;5778;47.856;12.154;2022-08-21T05:55:11;3.60;;;3.30;;
11443;SDS011;5778;47.856;12.154;2022-08-21T05:57:39;3.70;;;3.40;;
11443;SDS011;5778;47.856;12.154;2022-08-21T06:00:07;3.13;;;2.93;;
11443;SDS011;5778;47.856;12.154;2022-08-21T06:02:38;3.60;;;3.30;;
11443;SDS011;5778;47.856;12.154;2022-08-21T06:05:07;3.50;;;3.20;;
11443;SDS011;5778;47.856;12.154;2022-08-21T06:07:35;3.60;;;3.30;;
11443;SDS011;5778;47.856;12.154;2022-08-21T06:10:02;3.83;;;3.43;;
11443;SDS011;5778;47.856;12.154;2022-08-21T06:12:29;3.30;;;3.07;;
11443;SDS011;5778;47.856;12.154;2022-08-21T06:14:56;3.90;;;3.60;;
11443;SDS011;5778;47.856;12.154;2022-08-21T06:20:20;3.70;;;3.40;;
11443;SDS011;5778;47.856;12.154;2022-08-21T06:22:47;3.90;;;3.50;;
11443;SDS011;5778;47.856;12.154;2022-08-21T06:25:16;3.57;;;3.27;;
11443;SDS011;5778;47.856;12.154;2022-08-21T06:27:44;3.57;;;3.33;;
11443;SDS011;5778;47.856;12.154;2022-08-21T06:30:12;3.40;;;3.20;;
11443;SDS011;5778;47.856;12.154;2022-08-21T06:32:39;3.10;;;2.90;;
11443;SDS011;5778;47.856;12.154;2022-08-21T06:35:07;3.40;;;3.10;;
11443;SDS011;5778;47.856;12.154;2022-08-21T06:37:36;3.10;;;2.80;;
11443;SDS011;5778;47.856;12.154;2022-08-21T06:40:04;2.70;;;2.50;;
11443;SDS011;5778;47.856;12.154;2022-08-21T06:42:32;2.73;;;2.60;;
11443;SDS011;5778;47.856;12.154;2022-08-21T06:44:59;3.33;;;2.53;;
11443;SDS011;5778;47.856;12.154;2022-08-21T06:47:26;3.70;;;2.50;;
11443;SDS011;5778;47.856;12.154;2022-08-21T06:50:02;2.50;;;2.30;;
11443;SDS011;5778;47.856;12.154;2022-08-21T06:52:32;3.63;;;2.43;;
11443;SDS011;5778;47.856;12.154;2022-08-21T06:55:01;2.80;;;2.37;;
11443;SDS011;5778;47.856;12.154;2022-08-21T06:57:29;3.07;;;2.13;;
11443;SDS011;5778;47.856;12.154;2022-08-21T06:59:56;3.13;;;2.20;;
11443;SDS011;5778;47.856;12.154;2022-08-21T07:02:23;1.97;;;1.83;;
11443;SDS011;5778;47.856;12.154;2022-08-21T07:04:50;2.30;;;2.20;;
11443;SDS011;5778;47.856;12.154;2022-08-21T07:10:42;2.27;;;2.17;;
11443;SDS011;5778;47.856;12.154;2022-08-21T07:13:09;3.97;;;1.90;;
11443;SDS011;5778;47.856;12.154;2022-08-21T07:15:37;2.10;;;1.90;;
11443;SDS011;5778;47.856;12.154;2022-08-21T07:18:05;2.10;;;1.90;;
11443;SDS011;5778;47.856;12.154;2022-08-21T07:23:45;2.00;;;1.80;;
11443;SDS011;5778;47.856;12.154;2022-08-21T07:26:24;1.73;;;1.63;;
11443;SDS011;5778;47.856;12.154;2022-08-21T07:28:52;2.23;;;1.63;;
11443;SDS011;5778;47.856;12.154;2022-08-21T07:31:21;1.70;;;1.60;;
11443;SDS011;5778;47.856;12.154;2022-08-21T07:33:49;1.67;;;1.57;;
11443;SDS011;5778;47.856;12.154;2022-08-21T07:36:17;1.80;;;1.70;;
11443;SDS011;5778;47.856;12.154;2022-08-21T07:38:45;2.10;;;1.63;;
11443;SDS011;5778;47.856;12.154;2022-08-21T07:41:14;1.60;;;1.50;;
11443;SDS011;5778;47.856;12.154;2022-08-21T07:43:45;1.80;;;1.60;;
11443;SDS011;5778;47.856;12.154;2022-08-21T07:46:12;1.70;;;1.60;;
11443;SDS011;5778;47.856;12.154;2022-08-21T07:48:40;2.00;;;1.50;;
11443;SDS011;5778;47.856;12.154;2022-08-21T07:51:08;2.30;;;1.60;;
11443;SDS011;5778;47.856;12.154;2022-08-21T07:53:38;1.33;;;1.30;;
11443;SDS011;5778;47.856;12.154;2022-08-21T07:59:30;1.57;;;1.47;;
11443;SDS011;5778;47.856;12.154;2022-08-21T08:01:58;1.37;;;1.27;;
11443;SDS011;5778;47.856;12.154;2022-08-21T08:04:25;2.13;;;1.30;;
11443;SDS011;5778;47.856;12.154;2022-08-21T08:09:56;1.60;;;1.40;;
11443;SDS011;5778;47.856;12.154;2022-08-21T08:12:23;1.60;;;1.50;;
11443;SDS011;5778;47.856;12.154;2022-08-21T08:14:56;2.30;;;1.50;;
11443;SDS011;5778;47.856;12.154;2022-08-21T08:20:46;1.80;;;1.60;;
11443;SDS011;5778;47.856;12.154;2022-08-21T08:23:14;1.60;;;1.50;;
11443;SDS011;5778;47.856;12.154;2022-08-21T08:25:46;1.33;;;1.23;;
11443;SDS011;5778;47.856;12.154;2022-08-21T08:28:13;1.70;;;1.60;;
11443;SDS011;5778;47.856;12.154;2022-08-21T08:30:42;1.67;;;1.57;;
11443;SDS011;5778;47.856;12.154;2022-08-21T08:33:09;2.23;;;1.90;;
11443;SDS011;5778;47.856;12.154;2022-08-21T08:38:42;1.87;;;1.40;;
11443;SDS011;5778;47.856;12.154;2022-08-21T08:41:11;1.90;;;1.43;;
11443;SDS011;5778;47.856;12.154;2022-08-21T08:43:54;1.97;;;1.30;;
11443;SDS011;5778;47.856;12.154;2022-08-21T08:49:37;1.50;;;1.40;;
11443;SDS011;5778;47.856;12.154;2022-08-21T08:52:11;2.67;;;1.70;;
11443;SDS011;5778;47.856;12.154;2022-08-21T08:54:47;2.17;;;1.70;;
11443;SDS011;5778;47.856;12.154;2022-08-21T08:57:32;3.27;;;1.60;;
11443;SDS011;5778;47.856;12.154;2022-08-21T09:00:00;2.93;;;1.50;;
11443;SDS011;5778;47.856;12.154;2022-08-21T09:02:32;1.50;;;1.40;;
11443;SDS011;5778;47.856;12.154;2022-08-21T09:04:59;1.83;;;1.60;;
11443;SDS011;5778;47.856;12.154;2022-08-21T09:07:33;1.60;;;1.50;;
11443;SDS011;5778;47.856;12.154;2022-08-21T09:10:10;3.63;;;1.70;;
11443;SDS011;5778;47.856;12.154;2022-08-21T09:12:45;2.17;;;1.50;;
11443;SDS011;5778;47.856;12.154;2022-08-21T09:19:01;1.67;;;1.30;;
11443;SDS011;5778;47.856;12.154;2022-08-21T09:21:36;1.07;;;0.97;;
11443;SDS011;5778;47.856;12.154;2022-08-21T09:24:15;2.23;;;1.30;;
11443;SDS011;5778;47.856;12.154;2022-08-21T09:29:44;1.73;;;1.00;;
11443;SDS011;5778;47.856;12.154;2022-08-21T09:32:14;1.77;;;1.27;;
11443;SDS011;5778;47.856;12.154;2022-08-21T09:34:55;2.70;;;1.17;;
11443;SDS011;5778;47.856;12.154;2022-08-21T09:37:47;3.47;;;1.30;;
11443;SDS011;5778;47.856;12.154;2022-08-21T09:43:10;2.27;;;1.23;;
11443;SDS011;5778;47.856;12.154;2022-08-21T09:46:04;1.63;;;1.27;;
11443;SDS011;5778;47.856;12.154;2022-08-21T09:48:51;1.70;;;1.20;;
11443;SDS011;5778;47.856;12.154;2022-08-21T09:51:21;1.37;;;1.27;;
11443;SDS011;5778;47.856;12.154;2022-08-21T09:53:52;1.37;;;0.90;;
11443;SDS011;5778;47.856;12.154;2022-08-21T09:59:45;1.00;;;0.90;;
11443;SDS011;5778;47.856;12.154;2022-08-21T10:02:22;1.00;;;1.00;;
11443;SDS011;5778;47.856;12.154;2022-08-21T10:04:53;2.20;;;1.10;;
11443;SDS011;5778;47.856;12.154;2022-08-21T10:07:42;1.53;;;1.10;;
11443;SDS011;5778;47.856;12.154;2022-08-21T10:10:16;2.20;;;1.27;;
11443;SDS011;5778;47.856;12.154;2022-08-21T10:12:46;0.93;;;0.93;;
11443;SDS011;5778;47.856;12.154;2022-08-21T10:15:27;1.53;;;1.20;;
11443;SDS011;5778;47.856;12.154;2022-08-21T10:18:06;1.47;;;1.20;;
11443;SDS011;5778;47.856;12.154;2022-08-21T10:20:43;1.33;;;1.23;;
11443;SDS011;5778;47.856;12.154;2022-08-21T10:23:26;1.97;;;1.33;;
11443;SDS011;5778;47.856;12.154;2022-08-21T10:29:30;2.50;;;1.10;;
11443;SDS011;5778;47.856;12.154;2022-08-21T10:32:12;1.77;;;1.23;;
11443;SDS011;5778;47.856;12.154;2022-08-21T10:34:56;1.27;;;1.13;;
11443;SDS011;5778;47.856;12.154;2022-08-21T10:37:31;1.93;;;1.27;;
11443;SDS011;5778;47.856;12.154;2022-08-21T10:40:15;1.20;;;1.10;;
11443;SDS011;5778;47.856;12.154;2022-08-21T10:42:49;1.30;;;1.20;;
11443;SDS011;5778;47.856;12.154;2022-08-21T10:45:36;2.83;;;1.20;;
11443;SDS011;5778;47.856;12.154;2022-08-21T10:48:14;1.50;;;1.20;;
11443;SDS011;5778;47.856;12.154;2022-08-21T10:50:48;2.27;;;1.30;;
11443;SDS011;5778;47.856;12.154;2022-08-21T10:53:22;1.67;;;1.13;;
11443;SDS011;5778;47.856;12.154;2022-08-21T10:56:05;1.63;;;1.13;;
11443;SDS011;5778;47.856;12.154;2022-08-21T10:58:40;1.27;;;1.23;;
11443;SDS011;5778;47.856;12.154;2022-08-21T11:01:17;1.53;;;1.40;;
11443;SDS011;5778;47.856;12.154;2022-08-21T11:03:50;1.63;;;1.30;;
11443;SDS011;5778;47.856;12.154;2022-08-21T11:06:27;1.20;;;1.20;;
11443;SDS011;5778;47.856;12.154;2022-08-21T11:08:58;1.47;;;1.20;;
11443;SDS011;5778;47.856;12.154;2022-08-21T11:11:34;1.30;;;1.20;;
11443;SDS011;5778;47.856;12.154;2022-08-21T11:14:09;1.37;;;1.27;;
11443;SDS011;5778;47.856;12.154;2022-08-21T11:23:26;3.33;;;1.47;;
11443;SDS011;5778;47.856;12.154;2022-08-21T11:26:10;2.03;;;1.20;;
11443;SDS011;5778;47.856;12.154;2022-08-21T11:28:45;1.93;;;1.50;;
11443;SDS011;5778;47.856;12.154;2022-08-21T11:31:22;1.50;;;1.40;;
11443;SDS011;5778;47.856;12.154;2022-08-21T11:34:03;1.87;;;1.33;;
11443;SDS011;5778;47.856;12.154;2022-08-21T11:36:42;3.30;;;1.47;;
11443;SDS011;5778;47.856;12.154;2022-08-21T11:39:19;1.30;;;1.20;;
11443;SDS011;5778;47.856;12.154;2022-08-21T11:41:54;3.37;;;1.50;;
11443;SDS011;5778;47.856;12.154;2022-08-21T11:44:37;2.80;;;1.60;;
11443;SDS011;5778;47.856;12.154;2022-08-21T11:53:46;1.40;;;1.30;;
11443;SDS011;5778;47.856;12.154;2022-08-21T11:59:20;2.10;;;1.30;;
11443;SDS011;5778;47.856;12.154;2022-08-21T12:01:52;2.13;;;1.33;;
11443;SDS011;5778;47.856;12.154;2022-08-21T12:04:22;1.60;;;1.50;;
11443;SDS011;5778;47.856;12.154;2022-08-21T12:06:56;1.30;;;1.30;;
11443;SDS011;5778;47.856;12.154;2022-08-21T12:09:36;1.83;;;1.47;;
11443;SDS011;5778;47.856;12.154;2022-08-21T12:12:04;1.73;;;1.40;;
11443;SDS011;5778;47.856;12.154;2022-08-21T12:14:38;1.70;;;1.30;;
11443;SDS011;5778;47.856;12.154;2022-08-21T12:17:18;1.27;;;1.17;;
11443;SDS011;5778;47.856;12.154;2022-08-21T12:22:54;1.50;;;1.40;;
11443;SDS011;5778;47.856;12.154;2022-08-21T12:25:37;1.60;;;1.50;;
11443;SDS011;5778;47.856;12.154;2022-08-21T12:28:07;1.40;;;1.30;;
11443;SDS011;5778;47.856;12.154;2022-08-21T12:30:37;2.43;;;1.70;;
11443;SDS011;5778;47.856;12.154;2022-08-21T12:33:18;2.70;;;1.50;;
11443;SDS011;5778;47.856;12.154;2022-08-21T12:38:45;1.50;;;1.40;;
11443;SDS011;5778;47.856;12.154;2022-08-21T12:41:17;1.40;;;1.30;;
11443;SDS011;5778;47.856;12.154;2022-08-21T12:43:48;1.60;;;1.50;;
11443;SDS011;5778;47.856;12.154;2022-08-21T12:46:32;1.50;;;1.40;;
11443;SDS011;5778;47.856;12.154;2022-08-21T12:49:09;1.77;;;1.67;;
11443;SDS011;5778;47.856;12.154;2022-08-21T12:51:47;2.43;;;1.53;;
11443;SDS011;5778;47.856;12.154;2022-08-21T12:54:24;1.63;;;1.53;;
11443;SDS011;5778;47.856;12.154;2022-08-21T12:59:58;1.57;;;1.47;;
11443;SDS011;5778;47.856;12.154;2022-08-21T13:02:27;2.10;;;1.50;;
11443;SDS011;5778;47.856;12.154;2022-08-21T13:05:01;2.30;;;1.53;;
11443;SDS011;5778;47.856;12.154;2022-08-21T13:07:31;1.53;;;1.37;;
11443;SDS011;5778;47.856;12.154;2022-08-21T13:10:03;1.50;;;1.40;;
11443;SDS011;5778;47.856;12.154;2022-08-21T13:12:32;1.83;;;1.53;;
11443;SDS011;5778;47.856;12.154;2022-08-21T13:15:02;2.13;;;1.60;;
11443;SDS011;5778;47.856;12.154;2022-08-21T13:17:32;1.57;;;1.40;;
11443;SDS011;5778;47.856;12.154;2022-08-21T13:23:27;1.43;;;1.33;;
11443;SDS011;5778;47.856;12.154;2022-08-21T13:25:57;1.73;;;1.50;;
11443;SDS011;5778;47.856;12.154;2022-08-21T13:28:25;2.67;;;1.80;;
11443;SDS011;5778;47.856;12.154;2022-08-21T13:30:59;2.07;;;1.80;;
11443;SDS011;5778;47.856;12.154;2022-08-21T13:33:26;1.83;;;1.40;;
11443;SDS011;5778;47.856;12.154;2022-08-21T13:36:05;1.57;;;1.47;;
11443;SDS011;5778;47.856;12.154;2022-08-21T13:38:39;3.17;;;1.47;;
11443;SDS011;5778;47.856;12.154;2022-08-21T13:41:10;1.57;;;1.40;;
11443;SDS011;5778;47.856;12.154;2022-08-21T13:43:46;1.47;;;1.37;;
11443;SDS011;5778;47.856;12.154;2022-08-21T13:46:22;1.40;;;1.30;;
11443;SDS011;5778;47.856;12.154;2022-08-21T13:49:04;3.03;;;1.60;;
11443;SDS011;5778;47.856;12.154;2022-08-21T13:51:32;2.87;;;1.70;;
11443;SDS011;5778;47.856;12.154;2022-08-21T13:54:13;2.17;;;1.60;;
11443;SDS011;5778;47.856;12.154;2022-08-21T13:59:41;1.80;;;1.40;;
11443;SDS011;5778;47.856;12.154;2022-08-21T14:02:10;1.50;;;1.40;;
11443;SDS011;5778;47.856;12.154;2022-08-21T14:04:42;2.35;;;1.50;;
11443;SDS011;5778;47.856;12.154;2022-08-21T14:10:11;1.67;;;1.57;;
11443;SDS011;5778;47.856;12.154;2022-08-21T14:12:41;3.13;;;1.67;;
11443;SDS011;5778;47.856;12.154;2022-08-21T14:15:12;2.40;;;2.20;;
11443;SDS011;5778;47.856;12.154;2022-08-21T14:17:41;1.50;;;1.50;;
11443;SDS011;5778;47.856;12.154;2022-08-21T14:20:12;1.98;;;1.70;;
11443;SDS011;5778;47.856;12.154;2022-08-21T14:22:53;2.00;;;1.70;;
11443;SDS011;5778;47.856;12.154;2022-08-21T14:25:40;2.38;;;1.42;;
11443;SDS011;5778;47.856;12.154;2022-08-21T14:28:12;2.40;;;1.70;;
11443;SDS011;5778;47.856;12.154;2022-08-21T14:30:45;2.03;;;1.80;;
11443;SDS011;5778;47.856;12.154;2022-08-21T14:33:24;1.80;;;1.70;;
11443;SDS011;5778;47.856;12.154;2022-08-21T14:38:39;2.05;;;1.90;;
11443;SDS011;5778;47.856;12.154;2022-08-21T14:41:11;1.95;;;1.85;;
11443;SDS011;5778;47.856;12.154;2022-08-21T14:43:42;2.97;;;2.00;;
11443;SDS011;5778;47.856;12.154;2022-08-21T14:49:21;1.80;;;1.70;;
11443;SDS011;5778;47.856;12.154;2022-08-21T14:51:48;1.80;;;1.70;;
11443;SDS011;5778;47.856;12.154;2022-08-21T14:54:21;1.70;;;1.60;;
11443;SDS011;5778;47.856;12.154;2022-08-21T15:00:15;1.77;;;1.70;;
11443;SDS011;5778;47.856;12.154;2022-08-21T15:02:44;1.80;;;1.70;;
11443;SDS011;5778;47.856;12.154;2022-08-21T15:05:26;1.60;;;1.50;;
11443;SDS011;5778;47.856;12.154;2022-08-21T15:07:53;1.80;;;1.70;;
11443;SDS011;5778;47.856;12.154;2022-08-21T15:10:20;2.22;;;2.00;;
11443;SDS011;5778;47.856;12.154;2022-08-21T15:12:47;2.05;;;1.75;;
11443;SDS011;5778;47.856;12.154;2022-08-21T15:18:11;1.83;;;1.73;;
11443;SDS011;5778;47.856;12.154;2022-08-21T15:20:38;2.33;;;1.67;;
11443;SDS011;5778;47.856;12.154;2022-08-21T15:23:06;1.48;;;1.38;;
11443;SDS011;5778;47.856;12.154;2022-08-21T15:28:23;1.80;;;1.70;;
11443;SDS011;5778;47.856;12.154;2022-08-21T15:30:52;1.50;;;1.45;;
11443;SDS011;5778;47.856;12.154;2022-08-21T15:33:19;2.70;;;1.85;;
11443;SDS011;5778;47.856;12.154;2022-08-21T15:35:54;1.50;;;1.50;;
11443;SDS011;5778;47.856;12.154;2022-08-21T15:38:21;2.20;;;1.80;;
11443;SDS011;5778;47.856;12.154;2022-08-21T15:40:48;1.98;;;1.70;;
11443;SDS011;5778;47.856;12.154;2022-08-21T15:43:19;2.00;;;1.80;;
11443;SDS011;5778;47.856;12.154;2022-08-21T15:45:59;2.38;;;1.60;;
11443;SDS011;5778;47.856;12.154;2022-08-21T15:48:42;1.58;;;1.48;;
11443;SDS011;5778;47.856;12.154;2022-08-21T15:51:11;2.30;;;1.98;;
11443;SDS011;5778;47.856;12.154;2022-08-21T15:53:39;1.90;;;1.80;;
11443;SDS011;5778;47.856;12.154;2022-08-21T15:56:10;1.70;;;1.60;;
11443;SDS011;5778;47.856;12.154;2022-08-21T15:58:42;1.55;;;1.45;;
11443;SDS011;5778;47.856;12.154;2022-08-21T16:01:11;1.60;;;1.50;;
11443;SDS011;5778;47.856;12.154;2022-08-21T16:03:38;1.60;;;1.50;;
11443;SDS011;5778;47.856;12.154;2022-08-21T16:06:11;1.92;;;1.60;;
11443;SDS011;5778;47.856;12.154;2022-08-21T16:08:38;2.97;;;1.30;;
11443;SDS011;5778;47.856;12.154;2022-08-21T16:11:05;1.63;;;1.52;;
11443;SDS011;5778;47.856;12.154;2022-08-21T16:13:35;1.77;;;1.67;;
11443;SDS011;5778;47.856;12.154;2022-08-21T16:16:12;2.20;;;1.90;;
11443;SDS011;5778;47.856;12.154;2022-08-21T16:21:33;1.95;;;1.73;;
11443;SDS011;5778;47.856;12.154;2022-08-21T16:24:01;2.00;;;1.90;;
11443;SDS011;5778;47.856;12.154;2022-08-21T16:29:33;1.70;;;1.60;;
11443;SDS011;5778;47.856;12.154;2022-08-21T16:32:03;2.00;;;1.90;;
11443;SDS011;5778;47.856;12.154;2022-08-21T16:34:32;2.03;;;1.80;;
11443;SDS011;5778;47.856;12.154;2022-08-21T16:37:08;2.47;;;1.70;;
11443;SDS011;5778;47.856;12.154;2022-08-21T16:39:35;2.13;;;1.80;;
11443;SDS011;5778;47.856;12.154;2022-08-21T16:42:02;1.80;;;1.70;;
11443;SDS011;5778;47.856;12.154;2022-08-21T16:44:30;1.90;;;1.75;;
11443;SDS011;5778;47.856;12.154;2022-08-21T16:50:04;1.80;;;1.70;;
11443;SDS011;5778;47.856;12.154;2022-08-21T16:52:33;2.00;;;1.67;;
11443;SDS011;5778;47.856;12.154;2022-08-21T16:55:00;2.80;;;1.60;;
11443;SDS011;5778;47.856;12.154;2022-08-21T16:57:27;2.37;;;1.90;;
11443;SDS011;5778;47.856;12.154;2022-08-21T16:59:54;3.10;;;1.70;;
11443;SDS011;5778;47.856;12.154;2022-08-21T17:02:25;3.90;;;1.90;;
11443;SDS011;5778;47.856;12.154;2022-08-21T17:04:55;2.33;;;1.80;;
11443;SDS011;5778;47.856;12.154;2022-08-21T17:07:25;2.10;;;1.63;;
11443;SDS011;5778;47.856;12.154;2022-08-21T17:09:52;1.60;;;1.50;;
11443;SDS011;5778;47.856;12.154;2022-08-21T17:12:19;2.30;;;1.60;;
11443;SDS011;5778;47.856;12.154;2022-08-21T17:14:46;3.05;;;2.00;;
11443;SDS011;5778;47.856;12.154;2022-08-21T17:20:39;2.07;;;1.80;;
11443;SDS011;5778;47.856;12.154;2022-08-21T17:23:07;1.98;;;1.88;;
11443;SDS011;5778;47.856;12.154;2022-08-21T17:25:53;1.90;;;1.80;;
11443;SDS011;5778;47.856;12.154;2022-08-21T17:28:22;3.03;;;1.70;;
11443;SDS011;5778;47.856;12.154;2022-08-21T17:30:51;2.00;;;1.80;;
11443;SDS011;5778;47.856;12.154;2022-08-21T17:33:20;2.55;;;1.70;;
11443;SDS011;5778;47.856;12.154;2022-08-21T17:36:08;2.00;;;1.90;;
11443;SDS011;5778;47.856;12.154;2022-08-21T17:38:35;1.67;;;1.58;;
11443;SDS011;5778;47.856;12.154;2022-08-21T17:41:03;2.17;;;1.98;;
11443;SDS011;5778;47.856;12.154;2022-08-21T17:43:32;1.77;;;1.67;;
11443;SDS011;5778;47.856;12.154;2022-08-21T17:52:46;2.03;;;1.77;;
11443;SDS011;5778;47.856;12.154;2022-08-21T17:55:30;3.95;;;1.65;;
11443;SDS011;5778;47.856;12.154;2022-08-21T17:57:59;1.73;;;1.63;;
11443;SDS011;5778;47.856;12.154;2022-08-21T18:00:28;1.80;;;1.70;;